Time;durP1;ratioP1;P1;durP2;ratioP2;P2;SDS_P1;SDS_P2;PMS_P1;PMS_P2;Temp;Humidity;BMP_temperature;BMP_pressure;BME280_temperature;BME280_humidity;BME280_pressure;Samples;Min_cycle;Max_cycle;Signal;HPM_P1;HPM_P2
2023/07/10 00:00:54;;;;;;;6.57;2.25;;;16.50;99.90;;;;;;5031996;28;20422;-53
2023/07/10 00:03:20;;;;;;;4.57;1.80;;;16.50;99.90;;;;;;5031923;28;20037;-46
2023/07/10 00:05:45;;;;;;;4.15;1.67;;;16.40;99.90;;;;;;5032029;28;20021;-49
2023/07/10 00:08:11;;;;;;;8.13;2.17;;;16.40;99.90;;;;;;5031737;28;20033;-46
2023/07/10 00:10:37;;;;;;;4.90;2.33;;;16.40;99.90;;;;;;5031640;28;20633;-50
2023/07/10 00:13:03;;;;;;;4.85;2.03;;;16.30;99.90;;;;;;5031658;28;20050;-50
2023/07/10 00:15:29;;;;;;;3.67;1.83;;;16.20;99.90;;;;;;5031777;28;20158;-53
2023/07/10 00:17:54;;;;;;;6.32;2.10;;;16.20;99.90;;;;;;5031879;28;20493;-48
2023/07/10 00:20:25;;;;;;;6.43;2.38;;;16.20;99.90;;;;;;5031632;28;20071;-52
2023/07/10 00:22:51;;;;;;;3.53;1.60;;;16.20;99.90;;;;;;5031602;28;20068;-46
2023/07/10 00:25:17;;;;;;;3.30;1.83;;;16.20;99.90;;;;;;5031136;28;20060;-49
2023/07/10 00:27:48;;;;;;;6.70;2.10;;;16.20;99.90;;;;;;5031884;28;20029;-50
2023/07/10 00:30:19;;;;;;;4.32;1.85;;;16.10;99.90;;;;;;5031752;28;20037;-50
2023/07/10 00:32:46;;;;;;;4.82;1.80;;;16.10;99.90;;;;;;5031506;28;20025;-46
2023/07/10 00:35:17;;;;;;;4.55;1.88;;;16.10;99.90;;;;;;5031546;28;20041;-43
2023/07/10 00:37:49;;;;;;;3.50;1.58;;;16.00;99.90;;;;;;5031147;28;20087;-45
2023/07/10 00:40:24;;;;;;;4.18;1.60;;;15.60;99.90;;;;;;5031388;28;20026;-52
2023/07/10 00:42:59;;;;;;;2.67;1.45;;;15.90;99.90;;;;;;5031120;28;20032;-44
2023/07/10 00:45:25;;;;;;;5.15;2.00;;;15.80;99.90;;;;;;5031237;28;20025;-51
2023/07/10 00:48:16;;;;;;;3.20;1.70;;;15.80;99.90;;;;;;5031176;28;20172;-49
2023/07/10 00:50:48;;;;;;;5.60;1.90;;;14.90;99.90;;;;;;5021431;28;20040;-57
2023/07/10 00:53:38;;;;;;;5.65;1.98;;;15.70;99.90;;;;;;5031147;28;20036;-44
2023/07/10 00:56:06;;;;;;;5.72;2.00;;;15.80;99.90;;;;;;5030782;28;20045;-46
2023/07/10 00:58:38;;;;;;;6.68;1.70;;;15.80;99.90;;;;;;5030914;28;20113;-44
2023/07/10 01:01:03;;;;;;;5.07;1.90;;;15.80;99.90;;;;;;5030775;28;20022;-52
2023/07/10 01:03:29;;;;;;;6.28;2.17;;;15.90;99.90;;;;;;5030898;28;20037;-47
2023/07/10 01:05:59;;;;;;;2.83;1.45;;;15.80;99.90;;;;;;5031011;28;20221;-46
2023/07/10 01:08:25;;;;;;;6.97;1.83;;;15.80;99.90;;;;;;5030839;28;20030;-47
2023/07/10 01:10:51;;;;;;;5.40;1.60;;;15.80;99.90;;;;;;5030737;28;20037;-44
2023/07/10 01:13:17;;;;;;;4.55;1.65;;;15.80;99.90;;;;;;5030560;28;20053;-52
2023/07/10 01:15:42;;;;;;;5.60;1.60;;;15.80;99.90;;;;;;5030856;28;20116;-51
2023/07/10 01:18:11;;;;;;;3.05;1.45;;;16.20;99.90;;;;;;5030651;28;20076;-49
2023/07/10 01:20:48;;;;;;;2.22;1.23;;;15.80;99.90;;;;;;5030771;28;20022;-48
2023/07/10 01:23:16;;;;;;;2.35;1.33;;;15.80;99.90;;;;;;5030416;28;20039;-49
2023/07/10 01:25:59;;;;;;;3.92;1.55;;;15.80;99.90;;;;;;5030375;28;20022;-44
2023/07/10 01:28:28;;;;;;;2.80;1.45;;;17.20;99.90;;;;;;5030535;28;20029;-48
2023/07/10 01:30:56;;;;;;;2.60;0.88;;;15.70;99.90;;;;;;5030696;28;20478;-47
2023/07/10 01:33:31;;;;;;;2.73;1.20;;;15.70;99.90;;;;;;5030725;28;20096;-43
2023/07/10 01:36:00;;;;;;;3.35;1.40;;;15.80;99.90;;;;;;5030494;28;20060;-43
2023/07/10 01:38:48;;;;;;;4.22;1.50;;;15.60;99.90;;;;;;5030624;28;20022;-45
2023/07/10 01:41:36;;;;;;;4.18;1.67;;;15.60;99.90;;;;;;5030177;28;20036;-43
2023/07/10 01:44:12;;;;;;;7.43;1.60;;;15.50;99.90;;;;;;5030650;28;20037;-43
2023/07/10 01:46:38;;;;;;;6.53;1.70;;;15.40;99.90;;;;;;5030417;28;20189;-43
2023/07/10 01:49:04;;;;;;;2.33;1.25;;;15.40;99.90;;;;;;5030432;28;20401;-43
2023/07/10 01:51:29;;;;;;;2.90;1.30;;;15.30;99.90;;;;;;5030259;28;20454;-43
2023/07/10 01:54:00;;;;;;;3.95;1.67;;;15.30;99.90;;;;;;5030447;28;20060;-42
2023/07/10 01:56:27;;;;;;;3.38;1.40;;;15.30;99.90;;;;;;5029953;28;20036;-43
2023/07/10 01:58:52;;;;;;;5.00;1.40;;;15.20;99.90;;;;;;5030249;28;20037;-43
2023/07/10 02:01:18;;;;;;;4.28;1.70;;;15.20;99.90;;;;;;5029930;28;20050;-44
2023/07/10 02:03:44;;;;;;;2.75;1.30;;;15.10;99.90;;;;;;5029950;28;20109;-43
2023/07/10 02:06:10;;;;;;;3.58;1.45;;;;;;;;;;5033881;28;20041;-43
2023/07/10 02:08:35;;;;;;;4.13;1.58;;;15.10;99.90;;;;;;5034049;28;20067;-43
2023/07/10 02:11:01;;;;;;;5.60;1.83;;;15.10;99.90;;;;;;5022360;28;20019;-45
2023/07/10 02:13:27;;;;;;;3.05;1.20;;;15.10;99.90;;;;;;5029195;28;20052;-52
2023/07/10 02:15:52;;;;;;;3.30;1.63;;;15.00;99.90;;;;;;5034219;28;20026;-44
2023/07/10 02:18:18;;;;;;;4.47;1.52;;;13.60;99.90;;;;;;5034009;28;20034;-54
2023/07/10 02:20:44;;;;;;;1.83;1.05;;;14.90;99.90;;;;;;5034101;28;20029;-45
2023/07/10 02:23:09;;;;;;;3.60;1.52;;;14.80;99.90;;;;;;5033926;28;20049;-43
2023/07/10 02:25:35;;;;;;;2.00;1.30;;;14.80;99.90;;;;;;5014049;28;20014;-45
2023/07/10 02:28:01;;;;;;;1.77;1.00;;;14.80;99.90;;;;;;5013733;28;20073;-44
2023/07/10 02:30:26;;;;;;;3.85;1.27;;;14.80;99.90;;;;;;5013833;28;20030;-46
2023/07/10 02:32:52;;;;;;;2.75;0.95;;;14.70;99.90;;;;;;5014108;28;20477;-48
2023/07/10 02:35:17;;;;;;;1.55;0.98;;;14.70;99.90;;;;;;5013913;28;20021;-44
2023/07/10 02:37:43;;;;;;;3.15;0.80;;;14.70;99.90;;;;;;5013887;28;20062;-52
2023/07/10 02:40:09;;;;;;;2.40;0.95;;;14.70;99.90;;;;;;5013744;28;20018;-43
2023/07/10 02:42:35;;;;;;;3.50;1.52;;;;;;;;;;5013454;28;20410;-46
2023/07/10 02:45:00;;;;;;;2.92;1.08;;;14.60;99.90;;;;;;5013675;28;20114;-44
2023/07/10 02:47:26;;;;;;;3.63;1.10;;;14.10;99.90;;;;;;5013749;28;20199;-47
2023/07/10 02:49:51;;;;;;;5.38;1.52;;;14.60;99.90;;;;;;5013721;28;20029;-43
2023/07/10 02:52:17;;;;;;;2.10;1.10;;;14.60;99.90;;;;;;5013693;28;20072;-43
2023/07/10 02:54:43;;;;;;;2.83;1.10;;;14.60;99.90;;;;;;5013477;28;20080;-43
2023/07/10 02:57:08;;;;;;;2.42;1.00;;;15.40;99.90;;;;;;5013429;28;20506;-44
2023/07/10 02:59:34;;;;;;;3.15;0.90;;;14.60;99.90;;;;;;5013419;28;20033;-43
2023/07/10 03:02:00;;;;;;;3.33;0.98;;;14.60;99.90;;;;;;5013497;28;20029;-44
2023/07/10 03:04:25;;;;;;;3.40;0.93;;;14.60;99.90;;;;;;5013775;28;20026;-44
2023/07/10 03:06:51;;;;;;;2.03;0.70;;;14.50;99.90;;;;;;5013284;28;20026;-48
2023/07/10 03:09:17;;;;;;;1.73;0.90;;;14.50;99.90;;;;;;5013446;28;20018;-44
2023/07/10 03:11:43;;;;;;;3.38;0.93;;;14.50;99.90;;;;;;5012975;28;20045;-44
2023/07/10 03:14:09;;;;;;;2.55;0.95;;;14.50;99.90;;;;;;5013114;28;20029;-47
2023/07/10 03:16:34;;;;;;;2.63;1.20;;;14.50;99.90;;;;;;5012285;28;20076;-46
2023/07/10 03:19:00;;;;;;;1.33;0.88;;;14.40;99.90;;;;;;5013017;28;20058;-45
2023/07/10 03:21:26;;;;;;;2.67;1.00;;;14.20;99.90;;;;;;5013145;28;20041;-46
2023/07/10 03:23:51;;;;;;;6.22;1.17;;;14.40;99.90;;;;;;5012997;28;20483;-48
2023/07/10 03:26:17;;;;;;;2.00;0.88;;;14.40;99.90;;;;;;5012834;28;20062;-45
2023/07/10 03:28:43;;;;;;;2.90;0.90;;;14.40;99.90;;;;;;5012994;28;20022;-44
2023/07/10 03:31:09;;;;;;;1.88;0.95;;;14.40;99.90;;;;;;5012955;28;20502;-47
2023/07/10 03:33:34;;;;;;;2.30;1.35;;;14.30;99.90;;;;;;5012873;28;20026;-49
2023/07/10 03:36:03;;;;;;;1.45;0.85;;;14.40;99.90;;;;;;5012810;28;20160;-43
2023/07/10 03:38:28;;;;;;;2.80;0.98;;;15.00;99.90;;;;;;5012927;28;20120;-44
2023/07/10 03:40:57;;;;;;;2.78;1.17;;;14.20;99.90;;;;;;5012566;28;20033;-45
2023/07/10 03:43:24;;;;;;;3.05;1.10;;;14.30;99.90;;;;;;5012705;28;20490;-43
2023/07/10 03:45:50;;;;;;;3.05;1.20;;;14.30;99.90;;;;;;5012830;28;20030;-48
2023/07/10 03:48:16;;;;;;;3.88;1.42;;;14.30;99.90;;;;;;5012513;28;20029;-43
2023/07/10 03:50:42;;;;;;;2.45;0.90;;;14.30;99.90;;;;;;5012618;28;20057;-47
2023/07/10 03:53:07;;;;;;;1.85;1.02;;;14.40;99.90;;;;;;5012451;28;20030;-48
2023/07/10 03:55:33;;;;;;;4.72;1.40;;;14.40;99.90;;;;;;5012253;28;20053;-43
2023/07/10 03:57:58;;;;;;;3.28;1.13;;;14.40;99.90;;;;;;5012369;28;20026;-49
2023/07/10 04:00:24;;;;;;;2.72;1.20;;;14.40;99.90;;;;;;5012326;28;20033;-50
2023/07/10 04:02:50;;;;;;;5.32;1.48;;;14.40;99.90;;;;;;5012361;28;20038;-43
2023/07/10 04:05:16;;;;;;;3.95;1.05;;;14.40;99.90;;;;;;5012238;28;20359;-44
2023/07/10 04:07:41;;;;;;;4.30;1.25;;;14.40;99.90;;;;;;5012321;28;20145;-50
2023/07/10 04:10:07;;;;;;;3.92;1.20;;;14.40;99.90;;;;;;5011846;28;20018;-42
2023/07/10 04:12:33;;;;;;;3.78;1.10;;;14.40;99.90;;;;;;5012008;28;20147;-45
2023/07/10 04:14:59;;;;;;;1.60;0.95;;;14.40;99.90;;;;;;5012202;28;20069;-51
2023/07/10 04:17:24;;;;;;;3.42;1.50;;;14.40;99.90;;;;;;5012178;28;20498;-43
2023/07/10 04:19:50;;;;;;;3.45;1.00;;;14.40;99.90;;;;;;5012224;28;20112;-43
2023/07/10 04:22:16;;;;;;;2.97;0.90;;;14.40;99.90;;;;;;5011843;28;20060;-47
2023/07/10 04:24:41;;;;;;;2.58;1.48;;;14.40;99.90;;;;;;5011923;28;20391;-43
2023/07/10 04:27:08;;;;;;;3.28;1.23;;;14.40;99.90;;;;;;5011438;28;20052;-45
2023/07/10 04:29:34;;;;;;;1.25;1.05;;;15.70;99.90;;;;;;5012110;28;20018;-43
2023/07/10 04:32:00;;;;;;;2.33;0.93;;;14.40;99.90;;;;;;5011722;28;20081;-42
2023/07/10 04:34:25;;;;;;;3.00;0.95;;;12.70;99.90;;;;;;5011872;28;20033;-44
2023/07/10 04:36:51;;;;;;;3.15;1.20;;;14.40;99.90;;;;;;5011745;28;20414;-43
2023/07/10 04:39:16;;;;;;;1.85;0.90;;;14.40;99.90;;;;;;5011233;28;20440;-44
2023/07/10 04:41:44;;;;;;;1.17;0.82;;;14.40;99.90;;;;;;5009966;28;20092;-48
2023/07/10 04:44:10;;;;;;;3.95;1.20;;;14.40;99.90;;;;;;5011651;28;20163;-44
2023/07/10 04:46:35;;;;;;;4.32;0.93;;;14.40;99.90;;;;;;5011270;28;20418;-43
2023/07/10 04:49:01;;;;;;;5.05;1.10;;;14.40;99.90;;;;;;5011558;28;20057;-44
2023/07/10 04:51:27;;;;;;;1.40;1.00;;;14.40;99.90;;;;;;5010104;28;20541;-45
2023/07/10 04:53:52;;;;;;;2.70;1.08;;;13.60;99.90;;;;;;5011582;28;20450;-44
2023/07/10 04:56:19;;;;;;;4.13;1.02;;;14.40;99.90;;;;;;5010994;28;20060;-45
2023/07/10 04:58:47;;;;;;;2.45;1.05;;;14.40;99.90;;;;;;5011349;28;20033;-42
2023/07/10 05:01:13;;;;;;;4.27;1.07;;;14.80;99.90;;;;;;5011224;28;20026;-47
2023/07/10 05:03:39;;;;;;;4.25;1.30;;;14.40;99.90;;;;;;5011134;28;20302;-48
2023/07/10 05:06:04;;;;;;;4.30;1.30;;;14.60;99.90;;;;;;5011325;28;20500;-47
2023/07/10 05:08:30;;;;;;;2.60;1.23;;;14.80;99.90;;;;;;5010960;28;20030;-43
2023/07/10 05:10:56;;;;;;;4.05;1.45;;;15.20;99.90;;;;;;5011047;28;20025;-45
2023/07/10 05:13:24;;;;;;;2.63;1.27;;;15.40;99.90;;;;;;5010749;28;20048;-43
2023/07/10 05:15:49;;;;;;;2.65;1.10;;;15.50;99.90;;;;;;5011029;28;20040;-46
2023/07/10 05:18:15;;;;;;;3.72;1.48;;;15.60;99.90;;;;;;5011102;28;20453;-47
2023/07/10 05:20:46;;;;;;;7.93;2.05;;;15.70;99.90;;;;;;5011203;28;20037;-45
2023/07/10 05:23:11;;;;;;;3.90;1.35;;;15.90;99.90;;;;;;5011080;28;20034;-44
2023/07/10 05:25:37;;;;;;;2.15;1.08;;;15.90;99.90;;;;;;5010697;28;20029;-46
2023/07/10 05:28:03;;;;;;;3.35;1.30;;;15.90;99.90;;;;;;5010972;28;20025;-44
2023/07/10 05:30:29;;;;;;;2.78;1.20;;;15.90;99.90;;;;;;5011055;28;20108;-51
2023/07/10 05:32:55;;;;;;;4.38;1.40;;;16.00;99.90;;;;;;5010916;28;20088;-44
2023/07/10 05:35:21;;;;;;;1.90;1.10;;;16.00;99.90;;;;;;5010734;28;20092;-47
2023/07/10 05:37:48;;;;;;;2.25;1.20;;;16.10;99.90;;;;;;5010467;28;20398;-48
2023/07/10 05:40:13;;;;;;;5.78;1.42;;;16.20;99.90;;;;;;5009801;28;20018;-45
2023/07/10 05:42:39;;;;;;;3.55;1.15;;;16.30;99.90;;;;;;5010727;28;20395;-53
2023/07/10 05:45:06;;;;;;;7.47;1.75;;;16.40;99.90;;;;;;5010748;28;20041;-57
2023/07/10 05:47:31;;;;;;;3.92;1.45;;;17.10;99.90;;;;;;5010633;28;20069;-49
2023/07/10 05:49:57;;;;;;;3.13;1.30;;;16.70;99.90;;;;;;5010632;28;20046;-45
2023/07/10 05:52:23;;;;;;;4.18;1.48;;;18.40;99.90;;;;;;5010467;28;20037;-46
2023/07/10 05:54:48;;;;;;;3.83;1.65;;;17.10;99.90;;;;;;5010272;28;20021;-56
2023/07/10 05:57:14;;;;;;;5.53;1.63;;;17.50;99.90;;;;;;5010635;28;20512;-50
2023/07/10 05:59:40;;;;;;;4.50;1.33;;;17.90;99.90;;;;;;5010699;28;20083;-48
2023/07/10 06:02:10;;;;;;;6.45;1.90;;;18.30;99.90;;;;;;5010501;28;20084;-49
2023/07/10 06:04:36;;;;;;;2.90;1.17;;;18.80;99.90;;;;;;5010548;28;20499;-43
2023/07/10 06:07:01;;;;;;;3.70;1.02;;;19.40;99.90;;;;;;5010081;28;20022;-46
2023/07/10 06:09:27;;;;;;;8.73;1.38;;;19.90;99.90;;;;;;5010530;28;20025;-45
2023/07/10 06:11:52;;;;;;;3.13;0.85;;;20.30;99.90;;;;;;5009917;28;20042;-48
2023/07/10 06:14:18;;;;;;;3.72;1.20;;;21.60;99.90;;;;;;5010465;28;20033;-44
2023/07/10 06:16:44;;;;;;;7.63;1.17;;;21.10;99.90;;;;;;5010327;28;20372;-42
2023/07/10 06:19:09;;;;;;;3.42;1.30;;;21.50;99.90;;;;;;5010278;28;20084;-44
2023/07/10 06:21:35;;;;;;;3.00;1.17;;;22.10;99.90;;;;;;5010246;28;20085;-46
2023/07/10 06:24:00;;;;;;;5.72;1.42;;;22.40;99.90;;;;;;5010153;28;20064;-44
2023/07/10 06:26:26;;;;;;;1.48;0.65;;;22.90;99.90;;;;;;5010490;28;20034;-50
2023/07/10 06:28:52;;;;;;;2.58;0.90;;;23.30;99.90;;;;;;5010224;28;20439;-48
2023/07/10 06:31:17;;;;;;;6.47;0.90;;;23.40;99.90;;;;;;5010304;28;20510;-48
2023/07/10 06:33:43;;;;;;;2.88;1.15;;;23.50;99.90;;;;;;5010277;28;20030;-42
2023/07/10 06:36:10;;;;;;;2.67;0.93;;;23.50;99.90;;;;;;5010114;28;20101;-42
2023/07/10 06:38:35;;;;;;;5.63;0.98;;;23.90;99.90;;;;;;5010357;28;20034;-49
2023/07/10 06:41:01;;;;;;;1.90;0.60;;;24.20;99.90;;;;;;5010258;28;20041;-51
2023/07/10 06:43:27;;;;;;;5.28;0.95;;;24.40;99.90;;;;;;5010039;28;20038;-43
2023/07/10 06:45:56;;;;;;;3.95;0.80;;;25.20;99.90;;;;;;5007396;28;20408;-47
2023/07/10 06:48:21;;;;;;;3.45;0.75;;;25.00;99.90;;;;;;5005333;28;20030;-54
2023/07/10 06:50:52;;;;;;;4.18;0.90;;;25.40;99.90;;;;;;5002846;28;20034;-54
2023/07/10 06:53:19;;;;;;;2.38;0.80;;;25.60;99.90;;;;;;5013186;28;20026;-45
2023/07/10 06:55:44;;;;;;;3.38;0.90;;;25.80;99.90;;;;;;5012939;28;20018;-43
2023/07/10 06:58:13;;;;;;;3.05;0.70;;;25.90;99.90;;;;;;5013385;28;20029;-45
2023/07/10 07:00:39;;;;;;;3.08;0.82;;;26.00;99.90;;;;;;5013350;28;20014;-43
2023/07/10 07:03:07;;;;;;;0.77;0.40;;;26.00;99.90;;;;;;5013029;28;20116;-44
2023/07/10 07:05:32;;;;;;;4.68;0.63;;;26.40;99.90;;;;;;5012965;28;20044;-45
2023/07/10 07:07:58;;;;;;;3.03;0.80;;;26.60;99.90;;;;;;5013338;28;20022;-43
2023/07/10 07:10:24;;;;;;;3.80;0.82;;;26.80;99.90;;;;;;5012805;28;20049;-51
2023/07/10 07:12:50;;;;;;;3.83;0.80;;;26.80;99.90;;;;;;5012736;28;20046;-53
2023/07/10 07:15:17;;;;;;;3.53;1.02;;;26.80;99.90;;;;;;5012787;28;20036;-49
2023/07/10 07:17:43;;;;;;;3.30;0.65;;;26.80;99.90;;;;;;5004235;28;20501;-48
2023/07/10 07:20:09;;;;;;;3.65;0.80;;;27.00;99.90;;;;;;5013039;28;20026;-43
2023/07/10 07:22:35;;;;;;;3.92;0.70;;;25.60;99.90;;;;;;5000503;28;20030;-50
2023/07/10 07:25:01;;;;;;;1.77;0.52;;;26.70;99.90;;;;;;5011934;28;20461;-48
2023/07/10 07:27:31;;;;;;;1.38;0.50;;;27.10;99.90;;;;;;5012540;28;20026;-44
2023/07/10 07:29:57;;;;;;;3.55;0.70;;;27.20;99.90;;;;;;5010109;28;20386;-47
2023/07/10 07:32:22;;;;;;;0.77;0.50;;;27.20;99.90;;;;;;5012351;28;20530;-49
2023/07/10 07:34:48;;;;;;;4.20;0.90;;;26.90;99.90;;;;;;5012964;28;20026;-44
2023/07/10 07:37:14;;;;;;;1.67;0.80;;;26.60;99.90;;;;;;5012496;28;20037;-47
2023/07/10 07:39:39;;;;;;;4.35;1.05;;;26.70;99.90;;;;;;5012616;28;20022;-44
2023/07/10 07:42:05;;;;;;;4.53;1.23;;;27.00;99.90;;;;;;5012467;28;20454;-44
2023/07/10 07:44:31;;;;;;;3.17;0.45;;;27.10;99.70;;;;;;5012590;28;20045;-48
2023/07/10 07:46:57;;;;;;;2.97;0.65;;;26.60;99.40;;;;;;5012209;28;20029;-45
2023/07/10 07:49:24;;;;;;;1.77;0.47;;;26.50;99.90;;;;;;5012103;28;20033;-46
2023/07/10 07:51:51;;;;;;;1.85;0.50;;;26.20;99.90;;;;;;5012500;28;20030;-42
2023/07/10 07:54:16;;;;;;;2.92;0.50;;;25.80;99.90;;;;;;5012037;28;20022;-46
2023/07/10 07:56:42;;;;;;;2.30;0.60;;;25.10;99.70;;;;;;4999057;28;20471;-45
2023/07/10 07:59:08;;;;;;;1.85;0.40;;;24.90;99.90;;;;;;5012164;28;20487;-44
2023/07/10 08:01:34;;;;;;;1.40;0.50;;;24.50;99.90;;;;;;5011976;28;20426;-47
2023/07/10 08:03:59;;;;;;;0.45;0.38;;;24.80;99.90;;;;;;5011932;28;20056;-42
2023/07/10 08:06:30;;;;;;;2.75;0.50;;;24.40;99.90;;;;;;5012230;28;20033;-45
2023/07/10 08:08:56;;;;;;;1.45;0.40;;;26.10;99.90;;;;;;5012089;28;20057;-43
2023/07/10 08:11:22;;;;;;;2.15;0.40;;;24.30;99.90;;;;;;5011810;28;20061;-48
2023/07/10 08:13:48;;;;;;;1.92;0.60;;;24.40;99.90;;;;;;5011578;28;20081;-42
2023/07/10 08:16:14;;;;;;;3.53;0.60;;;24.10;99.90;;;;;;5011638;28;20026;-47
2023/07/10 08:18:40;;;;;;;4.47;0.57;;;23.70;99.90;;;;;;5011543;28;20554;-42
2023/07/10 08:21:09;;;;;;;0.68;0.32;;;23.40;99.90;;;;;;5012043;28;20113;-50
2023/07/10 08:23:36;;;;;;;0.90;0.40;;;23.10;99.90;;;;;;5011669;28;20129;-46
2023/07/10 08:26:02;;;;;;;1.52;0.60;;;23.00;99.90;;;;;;5011952;28;20030;-49
2023/07/10 08:28:28;;;;;;;3.25;0.90;;;21.20;99.90;;;;;;5011643;28;20040;-43
2023/07/10 08:30:53;;;;;;;1.83;0.55;;;22.80;99.90;;;;;;5011528;28;20018;-44
2023/07/10 08:33:19;;;;;;;2.45;0.65;;;22.60;99.90;;;;;;5011490;28;20021;-56
2023/07/10 08:35:53;;;;;;;3.60;0.65;;;22.70;99.90;;;;;;5011624;28;20034;-47
2023/07/10 08:38:19;;;;;;;1.85;0.65;;;22.80;99.90;;;;;;5011598;28;20010;-46
2023/07/10 08:40:45;;;;;;;1.67;0.57;;;23.20;99.90;;;;;;5011696;28;20037;-46
2023/07/10 08:43:30;;;;;;;0.57;0.40;;;23.50;99.90;;;;;;5010943;28;20034;-42
2023/07/10 08:46:14;;;;;;;2.05;0.60;;;23.50;99.90;;;;;;5005686;28;20061;-47
2023/07/10 08:48:42;;;;;;;3.47;0.70;;;23.40;99.90;;;;;;5010179;28;20434;-54
2023/07/10 08:51:20;;;;;;;1.85;0.40;;;23.70;99.90;;;;;;5011442;28;20018;-46
2023/07/10 08:54:18;;;;;;;0.52;0.30;;;24.10;99.90;;;;;;5010054;28;20487;-45
2023/07/10 08:57:03;;;;;;;2.03;0.52;;;24.10;99.90;;;;;;5011455;28;20021;-51
2023/07/10 08:59:34;;;;;;;0.40;0.30;;;23.70;99.90;;;;;;5004901;28;20038;-42
2023/07/10 09:02:00;;;;;;;5.03;0.90;;;23.30;99.90;;;;;;5010925;28;20033;-42
2023/07/10 09:04:28;;;;;;;2.38;0.60;;;22.80;99.90;;;;;;5011193;28;20026;-44
2023/07/10 09:06:58;;;;;;;1.48;0.50;;;22.50;99.90;;;;;;5010910;28;20483;-45
2023/07/10 09:09:41;;;;;;;1.33;0.52;;;22.50;99.90;;;;;;5010744;28;20390;-41
2023/07/10 09:12:32;;;;;;;1.65;0.47;;;22.80;99.90;;;;;;5015487;28;20045;-45
2023/07/10 09:15:02;;;;;;;3.35;0.93;;;23.20;99.90;;;;;;4996341;28;20493;-47
2023/07/10 09:17:35;;;;;;;3.95;0.55;;;24.10;99.90;;;;;;5000842;28;20030;-46
2023/07/10 09:20:06;;;;;;;2.33;0.50;;;24.70;99.90;;;;;;5010924;28;20022;-49
2023/07/10 09:22:36;;;;;;;1.00;0.43;;;24.60;99.90;;;;;;5011061;28;20081;-44
2023/07/10 09:25:10;;;;;;;3.85;0.82;;;24.30;99.90;;;;;;5010846;28;20061;-42
2023/07/10 09:27:35;;;;;;;1.00;0.45;;;24.20;99.90;;;;;;5010748;28;20105;-48
2023/07/10 09:30:01;;;;;;;1.70;0.68;;;23.90;99.90;;;;;;5011059;28;20117;-49
2023/07/10 09:32:34;;;;;;;4.75;0.70;;;23.90;99.90;;;;;;5010223;28;20507;-47
2023/07/10 09:35:00;;;;;;;1.95;0.70;;;23.90;99.90;;;;;;5010698;28;20018;-49
2023/07/10 09:37:36;;;;;;;2.38;0.82;;;23.80;99.90;;;;;;5010478;28;20026;-47
2023/07/10 09:40:37;;;;;;;2.47;0.75;;;23.80;99.90;;;;;;4998017;28;20097;-44
2023/07/10 09:43:06;;;;;;;3.88;0.63;;;24.20;99.90;;;;;;5009994;28;20040;-51
2023/07/10 09:45:34;;;;;;;2.25;0.50;;;24.60;99.90;;;;;;5010555;28;20022;-47
2023/07/10 09:48:00;;;;;;;1.77;0.43;;;24.70;99.90;;;;;;5010287;28;20037;-45
2023/07/10 09:50:26;;;;;;;1.60;0.63;;;24.90;99.90;;;;;;5010366;28;20075;-46
2023/07/10 09:52:56;;;;;;;3.42;0.60;;;25.20;99.90;;;;;;5010468;28;20045;-43
2023/07/10 09:55:23;;;;;;;3.35;0.80;;;25.30;99.90;;;;;;5010568;28;20014;-48
2023/07/10 09:58:00;;;;;;;1.55;0.57;;;25.60;99.90;;;;;;5010696;28;20061;-47
2023/07/10 10:00:27;;;;;;;3.67;0.75;;;26.20;99.90;;;;;;4997975;28;20037;-45
2023/07/10 10:03:00;;;;;;;2.45;1.00;;;25.90;99.90;;;;;;5007451;28;20034;-51
2023/07/10 10:05:27;;;;;;;2.78;0.80;;;25.80;99.90;;;;;;5010719;28;20030;-53
2023/07/10 10:08:00;;;;;;;6.43;0.95;;;25.60;99.70;;;;;;5010641;28;20068;-45
2023/07/10 10:10:32;;;;;;;1.42;0.45;;;25.60;99.90;;;;;;5010226;28;20045;-49
2023/07/10 10:13:18;;;;;;;1.02;0.57;;;25.80;99.90;;;;;;5010246;28;20042;-46
2023/07/10 10:15:54;;;;;;;4.63;0.80;;;26.10;99.90;;;;;;4997881;28;20112;-48
2023/07/10 10:18:53;;;;;;;6.45;0.90;;;26.30;99.90;;;;;;5010285;28;20058;-47
2023/07/10 10:21:20;;;;;;;3.15;0.82;;;27.20;98.90;;;;;;5010156;28;20034;-47
2023/07/10 10:23:48;;;;;;;4.20;0.70;;;26.70;99.70;;;;;;5010121;28;20485;-45
2023/07/10 10:26:32;;;;;;;2.60;0.43;;;27.10;99.30;;;;;;5012150;28;20382;-47
2023/07/10 10:29:22;;;;;;;0.82;0.50;;;27.50;98.40;;;;;;5013700;28;20018;-44
2023/07/10 10:32:17;;;;;;;3.30;0.77;;;27.60;99.50;;;;;;5014004;28;20018;-51
2023/07/10 10:35:16;;;;;;;1.55;0.60;;;27.50;99.40;;;;;;4998275;28;20502;-44
2023/07/10 10:37:50;;;;;;;4.38;1.63;;;27.60;97.80;;;;;;5013685;28;20033;-44
2023/07/10 10:40:27;;;;;;;2.15;0.60;;;27.60;98.00;;;;;;5013885;28;20443;-49
2023/07/10 10:43:16;;;;;;;1.52;0.52;;;27.80;97.90;;;;;;5013672;28;20092;-52
2023/07/10 10:45:51;;;;;;;9.10;0.93;;;27.90;99.20;;;;;;5013837;28;20072;-48
2023/07/10 10:48:43;;;;;;;6.90;0.80;;;28.30;99.00;;;;;;5013499;28;20021;-49
2023/07/10 10:51:26;;;;;;;3.45;0.88;;;28.30;95.00;;;;;;5013502;28;20083;-51
2023/07/10 10:54:16;;;;;;;3.35;0.98;;;28.50;97.60;;;;;;5013522;28;20473;-44
2023/07/10 10:57:11;;;;;;;3.08;0.90;;;28.70;96.60;;;;;;5013412;28;20387;-49
2023/07/10 10:59:58;;;;;;;4.72;0.80;;;28.70;96.60;;;;;;5013178;28;20022;-51
2023/07/10 11:02:45;;;;;;;2.78;0.98;;;27.90;95.40;;;;;;5013346;28;20595;-52
2023/07/10 11:05:18;;;;;;;4.57;0.80;;;27.30;98.20;;;;;;5013403;28;20045;-46
2023/07/10 11:07:48;;;;;;;1.90;0.65;;;27.00;98.20;;;;;;5013392;28;20030;-50
2023/07/10 11:10:22;;;;;;;1.95;0.80;;;26.70;99.30;;;;;;5013213;28;20029;-47
2023/07/10 11:12:47;;;;;;;2.20;0.60;;;26.80;99.90;;;;;;5012995;28;20506;-49
2023/07/10 11:15:19;;;;;;;3.50;0.77;;;26.70;99.90;;;;;;5013092;28;20113;-48
2023/07/10 11:17:49;;;;;;;5.45;0.88;;;26.80;99.50;;;;;;5013174;28;20479;-44
2023/07/10 11:20:16;;;;;;;3.75;1.08;;;26.30;99.90;;;;;;5013052;28;20533;-48
2023/07/10 11:22:50;;;;;;;3.38;0.68;;;25.80;99.90;;;;;;5013042;28;20042;-45
2023/07/10 11:25:45;;;;;;;2.75;0.90;;;25.10;99.90;;;;;;5012712;28;20101;-47
2023/07/10 11:28:25;;;;;;;2.35;0.82;;;24.90;99.90;;;;;;5012160;28;20042;-44
2023/07/10 11:31:34;;;;;;;5.75;0.90;;;25.10;99.90;;;;;;5012667;28;20022;-43
2023/07/10 11:34:05;;;;;;;4.78;1.25;;;25.10;99.90;;;;;;5012631;28;20053;-44
2023/07/10 11:36:34;;;;;;;3.17;0.80;;;24.80;99.90;;;;;;4999198;28;20369;-45
2023/07/10 11:39:06;;;;;;;2.55;0.90;;;25.50;99.90;;;;;;5012008;28;20026;-46
2023/07/10 11:41:35;;;;;;;5.20;0.88;;;25.00;99.90;;;;;;5012449;28;20537;-49
2023/07/10 11:44:31;;;;;;;3.25;0.85;;;25.50;99.90;;;;;;5012481;28;20057;-46
2023/07/10 11:46:56;;;;;;;1.67;0.80;;;25.80;99.90;;;;;;5001202;28;20060;-46
2023/07/10 11:49:27;;;;;;;1.45;0.70;;;26.60;99.90;;;;;;5012324;28;20042;-44
2023/07/10 11:52:25;;;;;;;5.18;1.15;;;26.90;99.90;;;;;;5012288;28;20080;-46
2023/07/10 11:54:51;;;;;;;2.90;0.90;;;26.90;99.90;;;;;;5012276;28;20033;-47
2023/07/10 11:57:22;;;;;;;2.38;1.10;;;26.90;99.10;;;;;;5012328;28;20084;-53
2023/07/10 11:59:49;;;;;;;2.10;0.73;;;26.60;99.60;;;;;;5012212;28;20037;-48
2023/07/10 12:02:31;;;;;;;3.22;0.50;;;26.50;99.90;;;;;;5012106;28;20032;-55
2023/07/10 12:05:01;;;;;;;3.10;0.80;;;26.40;98.80;;;;;;5009793;28;20103;-44
2023/07/10 12:07:27;;;;;;;1.33;0.75;;;26.20;99.90;;;;;;5006396;28;20360;-44
2023/07/10 12:09:57;;;;;;;2.72;0.70;;;26.20;99.90;;;;;;5006805;28;20028;-45
2023/07/10 12:12:23;;;;;;;3.20;0.60;;;26.40;99.90;;;;;;5009732;28;20080;-46
2023/07/10 12:14:52;;;;;;;2.28;0.88;;;26.50;99.90;;;;;;5003293;28;20030;-50
2023/07/10 12:17:18;;;;;;;1.88;0.70;;;26.30;99.10;;;;;;5003789;28;20018;-51
2023/07/10 12:19:45;;;;;;;2.03;0.65;;;26.10;99.70;;;;;;5001855;28;20058;-53
2023/07/10 12:22:23;;;;;;;1.50;0.80;;;26.00;99.90;;;;;;5009039;28;20061;-51
2023/07/10 12:24:50;;;;;;;3.58;0.77;;;26.10;99.90;;;;;;5005861;28;20029;-52
2023/07/10 12:27:16;;;;;;;2.03;0.60;;;26.10;99.60;;;;;;5005275;28;20053;-53
2023/07/10 12:29:53;;;;;;;4.13;1.00;;;25.80;99.90;;;;;;5010924;28;20084;-44
2023/07/10 12:32:19;;;;;;;4.05;1.40;;;25.60;99.90;;;;;;5008180;28;20061;-42
2023/07/10 12:34:46;;;;;;;3.53;0.70;;;25.70;99.90;;;;;;5010913;28;20120;-43
2023/07/10 12:37:15;;;;;;;4.00;0.70;;;25.80;99.60;;;;;;5011702;28;20044;-45
2023/07/10 12:39:42;;;;;;;0.50;0.50;;;25.70;99.80;;;;;;5011360;28;20018;-43
2023/07/10 12:42:31;;;;;;;3.50;0.60;;;25.80;99.90;;;;;;5011549;28;20487;-42
2023/07/10 12:44:57;;;;;;;2.85;0.75;;;26.00;99.90;;;;;;5011186;28;20124;-45
2023/07/10 12:47:22;;;;;;;2.83;0.88;;;25.90;99.90;;;;;;5011390;28;20487;-45
2023/07/10 12:49:54;;;;;;;4.18;1.10;;;25.50;99.40;;;;;;5011308;28;20109;-43
2023/07/10 12:52:23;;;;;;;2.25;0.80;;;25.00;99.90;;;;;;5011350;28;20664;-46
2023/07/10 12:54:52;;;;;;;0.85;0.40;;;24.70;99.90;;;;;;5011386;28;20025;-43
2023/07/10 12:57:18;;;;;;;;;;;25.30;99.90;;;;;;5010368;28;20034;-42
2023/07/10 12:59:47;;;;;;;1.52;0.60;;;25.00;99.90;;;;;;5011207;28;20273;-50